sensor_id;sensor_type;location;lat;lon;timestamp;temperature;humidity
30865;DHT22;17574;49.418;11.038;2023-03-03T00:00:00;3.70;20.10
30865;DHT22;17574;49.418;11.038;2023-03-03T00:02:28;3.70;20.10
30865;DHT22;17574;49.418;11.038;2023-03-03T00:04:55;3.60;20.20
30865;DHT22;17574;49.418;11.038;2023-03-03T00:07:22;3.60;20.90
30865;DHT22;17574;49.418;11.038;2023-03-03T00:09:49;3.60;21.10
30865;DHT22;17574;49.418;11.038;2023-03-03T00:12:26;3.50;21.20
30865;DHT22;17574;49.418;11.038;2023-03-03T00:14:53;3.50;21.00
30865;DHT22;17574;49.418;11.038;2023-03-03T00:17:24;3.50;21.30
30865;DHT22;17574;49.418;11.038;2023-03-03T00:19:51;3.50;21.60
30865;DHT22;17574;49.418;11.038;2023-03-03T00:22:26;3.40;21.70
30865;DHT22;17574;49.418;11.038;2023-03-03T00:24:53;3.40;22.10
30865;DHT22;17574;49.418;11.038;2023-03-03T00:27:28;3.40;22.20
30865;DHT22;17574;49.418;11.038;2023-03-03T00:29:56;3.30;22.20
30865;DHT22;17574;49.418;11.038;2023-03-03T00:32:27;3.30;22.20
30865;DHT22;17574;49.418;11.038;2023-03-03T00:34:59;3.30;22.50
30865;DHT22;17574;49.418;11.038;2023-03-03T00:37:28;3.20;22.60
30865;DHT22;17574;49.418;11.038;2023-03-03T00:40:11;3.20;22.90
30865;DHT22;17574;49.418;11.038;2023-03-03T00:42:39;3.10;23.10
30865;DHT22;17574;49.418;11.038;2023-03-03T00:46:07;3.10;22.90
30865;DHT22;17574;49.418;11.038;2023-03-03T00:48:10;3.10;22.80
30865;DHT22;17574;49.418;11.038;2023-03-03T00:50:41;3.00;24.10
30865;DHT22;17574;49.418;11.038;2023-03-03T00:53:18;3.00;24.10
30865;DHT22;17574;49.418;11.038;2023-03-03T00:55:45;3.00;24.10
30865;DHT22;17574;49.418;11.038;2023-03-03T00:58:12;3.00;24.10
30865;DHT22;17574;49.418;11.038;2023-03-03T01:00:39;3.50;24.40
30865;DHT22;17574;49.418;11.038;2023-03-03T01:03:07;3.50;24.40
30865;DHT22;17574;49.418;11.038;2023-03-03T01:05:34;2.90;24.00
30865;DHT22;17574;49.418;11.038;2023-03-03T01:08:02;2.90;24.00
30865;DHT22;17574;49.418;11.038;2023-03-03T01:10:29;2.80;23.90
30865;DHT22;17574;49.418;11.038;2023-03-03T01:12:57;2.80;23.90
30865;DHT22;17574;49.418;11.038;2023-03-03T01:15:24;3.00;24.10
30865;DHT22;17574;49.418;11.038;2023-03-03T01:17:51;2.70;23.90
30865;DHT22;17574;49.418;11.038;2023-03-03T01:20:17;2.70;23.90
30865;DHT22;17574;49.418;11.038;2023-03-03T01:22:44;3.50;24.50
30865;DHT22;17574;49.418;11.038;2023-03-03T01:25:11;3.00;24.10
30865;DHT22;17574;49.418;11.038;2023-03-03T01:27:38;2.70;23.90
30865;DHT22;17574;49.418;11.038;2023-03-03T01:30:04;2.70;23.90
30865;DHT22;17574;49.418;11.038;2023-03-03T01:32:32;2.80;24.00
30865;DHT22;17574;49.418;11.038;2023-03-03T01:34:58;2.70;23.90
30865;DHT22;17574;49.418;11.038;2023-03-03T01:37:25;2.70;23.90
30865;DHT22;17574;49.418;11.038;2023-03-03T01:39:52;2.70;23.90
30865;DHT22;17574;49.418;11.038;2023-03-03T01:42:19;2.70;23.90
30865;DHT22;17574;49.418;11.038;2023-03-03T01:44:46;2.60;23.80
30865;DHT22;17574;49.418;11.038;2023-03-03T01:47:14;2.60;24.40
30865;DHT22;17574;49.418;11.038;2023-03-03T01:49:50;3.10;24.20
30865;DHT22;17574;49.418;11.038;2023-03-03T01:52:24;2.60;24.10
30865;DHT22;17574;49.418;11.038;2023-03-03T01:54:56;2.50;24.80
30865;DHT22;17574;49.418;11.038;2023-03-03T01:57:26;2.50;24.50
30865;DHT22;17574;49.418;11.038;2023-03-03T01:59:53;2.80;25.00
30865;DHT22;17574;49.418;11.038;2023-03-03T02:02:20;2.80;24.40
30865;DHT22;17574;49.418;11.038;2023-03-03T02:04:48;2.50;23.80
30865;DHT22;17574;49.418;11.038;2023-03-03T02:07:15;2.30;23.60
30865;DHT22;17574;49.418;11.038;2023-03-03T02:12:10;2.40;23.70
30865;DHT22;17574;49.418;11.038;2023-03-03T02:14:37;2.50;25.20
30865;DHT22;17574;49.418;11.038;2023-03-03T02:17:04;2.30;25.70
30865;DHT22;17574;49.418;11.038;2023-03-03T02:22:00;2.40;25.60
30865;DHT22;17574;49.418;11.038;2023-03-03T02:24:31;2.40;24.70
30865;DHT22;17574;49.418;11.038;2023-03-03T02:26:59;2.40;24.50
30865;DHT22;17574;49.418;11.038;2023-03-03T02:29:26;2.20;24.80
30865;DHT22;17574;49.418;11.038;2023-03-03T02:31:52;2.90;25.20
30865;DHT22;17574;49.418;11.038;2023-03-03T02:34:19;2.30;24.40
30865;DHT22;17574;49.418;11.038;2023-03-03T02:36:46;2.30;23.60
30865;DHT22;17574;49.418;11.038;2023-03-03T02:39:13;2.30;23.70
30865;DHT22;17574;49.418;11.038;2023-03-03T02:41:42;2.20;23.60
30865;DHT22;17574;49.418;11.038;2023-03-03T02:44:11;2.20;24.90
30865;DHT22;17574;49.418;11.038;2023-03-03T02:46:39;2.10;24.70
30865;DHT22;17574;49.418;11.038;2023-03-03T02:49:07;2.10;24.80
30865;DHT22;17574;49.418;11.038;2023-03-03T02:51:34;2.00;25.30
30865;DHT22;17574;49.418;11.038;2023-03-03T02:54:01;2.00;25.50
30865;DHT22;17574;49.418;11.038;2023-03-03T02:56:27;2.00;25.30
30865;DHT22;17574;49.418;11.038;2023-03-03T02:58:54;2.00;24.90
30865;DHT22;17574;49.418;11.038;2023-03-03T03:01:21;2.00;25.20
30865;DHT22;17574;49.418;11.038;2023-03-03T03:03:48;2.00;24.90
30865;DHT22;17574;49.418;11.038;2023-03-03T03:06:15;1.50;24.90
30865;DHT22;17574;49.418;11.038;2023-03-03T03:08:41;2.40;25.50
30865;DHT22;17574;49.418;11.038;2023-03-03T03:11:08;1.80;25.50
30865;DHT22;17574;49.418;11.038;2023-03-03T03:13:35;1.80;25.50
30865;DHT22;17574;49.418;11.038;2023-03-03T03:16:01;1.80;25.60
30865;DHT22;17574;49.418;11.038;2023-03-03T03:18:28;1.80;25.60
30865;DHT22;17574;49.418;11.038;2023-03-03T03:20:55;1.80;25.30
30865;DHT22;17574;49.418;11.038;2023-03-03T03:23:21;1.70;26.00
30865;DHT22;17574;49.418;11.038;2023-03-03T03:25:48;1.70;26.50
30865;DHT22;17574;49.418;11.038;2023-03-03T03:28:15;1.70;26.60
30865;DHT22;17574;49.418;11.038;2023-03-03T03:30:42;1.70;26.60
30865;DHT22;17574;49.418;11.038;2023-03-03T03:33:11;1.70;27.50
30865;DHT22;17574;49.418;11.038;2023-03-03T03:35:37;1.70;28.30
30865;DHT22;17574;49.418;11.038;2023-03-03T03:38:06;1.60;28.40
30865;DHT22;17574;49.418;11.038;2023-03-03T03:40:32;1.70;28.30
30865;DHT22;17574;49.418;11.038;2023-03-03T03:42:59;1.60;28.10
30865;DHT22;17574;49.418;11.038;2023-03-03T03:45:25;2.20;28.10
30865;DHT22;17574;49.418;11.038;2023-03-03T03:47:52;1.80;28.20
30865;DHT22;17574;49.418;11.038;2023-03-03T03:50:19;1.90;28.80
30865;DHT22;17574;49.418;11.038;2023-03-03T03:52:45;1.90;29.70
30865;DHT22;17574;49.418;11.038;2023-03-03T03:55:12;1.50;29.70
30865;DHT22;17574;49.418;11.038;2023-03-03T03:57:40;1.50;32.10
30865;DHT22;17574;49.418;11.038;2023-03-03T04:00:08;1.50;32.10
30865;DHT22;17574;49.418;11.038;2023-03-03T04:02:35;1.50;32.10
30865;DHT22;17574;49.418;11.038;2023-03-03T04:05:02;1.40;32.00
30865;DHT22;17574;49.418;11.038;2023-03-03T04:07:29;1.40;32.00
30865;DHT22;17574;49.418;11.038;2023-03-03T04:09:55;2.00;32.50
30865;DHT22;17574;49.418;11.038;2023-03-03T04:12:22;1.50;31.20
30865;DHT22;17574;49.418;11.038;2023-03-03T04:14:49;1.50;31.20
30865;DHT22;17574;49.418;11.038;2023-03-03T04:17:16;1.40;32.00
30865;DHT22;17574;49.418;11.038;2023-03-03T04:19:43;1.70;32.20
30865;DHT22;17574;49.418;11.038;2023-03-03T04:22:09;1.40;31.60
30865;DHT22;17574;49.418;11.038;2023-03-03T04:24:36;1.40;30.80
30865;DHT22;17574;49.418;11.038;2023-03-03T04:27:02;1.50;30.60
30865;DHT22;17574;49.418;11.038;2023-03-03T04:29:29;1.40;31.30
30865;DHT22;17574;49.418;11.038;2023-03-03T04:31:56;1.40;32.00
30865;DHT22;17574;49.418;11.038;2023-03-03T04:34:22;1.80;32.40
30865;DHT22;17574;49.418;11.038;2023-03-03T04:36:49;1.40;32.00
30865;DHT22;17574;49.418;11.038;2023-03-03T04:39:16;1.30;32.00
30865;DHT22;17574;49.418;11.038;2023-03-03T04:41:42;1.40;32.10
30865;DHT22;17574;49.418;11.038;2023-03-03T04:44:09;1.30;32.70
30865;DHT22;17574;49.418;11.038;2023-03-03T04:46:36;1.30;33.10
30865;DHT22;17574;49.418;11.038;2023-03-03T04:49:02;1.30;32.00
30865;DHT22;17574;49.418;11.038;2023-03-03T04:51:32;1.80;32.40
30865;DHT22;17574;49.418;11.038;2023-03-03T04:53:59;1.90;32.50
30865;DHT22;17574;49.418;11.038;2023-03-03T04:56:25;1.30;32.00
30865;DHT22;17574;49.418;11.038;2023-03-03T04:58:53;1.30;33.20
30865;DHT22;17574;49.418;11.038;2023-03-03T05:01:20;1.20;34.60
30865;DHT22;17574;49.418;11.038;2023-03-03T05:03:47;1.20;36.10
30865;DHT22;17574;49.418;11.038;2023-03-03T05:06:14;1.20;36.20
30865;DHT22;17574;49.418;11.038;2023-03-03T05:08:40;1.30;35.40
30865;DHT22;17574;49.418;11.038;2023-03-03T05:11:08;1.30;34.00
30865;DHT22;17574;49.418;11.038;2023-03-03T05:13:35;1.90;35.20
30865;DHT22;17574;49.418;11.038;2023-03-03T05:16:01;1.20;35.10
30865;DHT22;17574;49.418;11.038;2023-03-03T05:18:28;1.20;35.20
30865;DHT22;17574;49.418;11.038;2023-03-03T05:20:55;1.20;34.80
30865;DHT22;17574;49.418;11.038;2023-03-03T05:23:21;1.10;34.00
30865;DHT22;17574;49.418;11.038;2023-03-03T05:25:48;1.20;34.90
30865;DHT22;17574;49.418;11.038;2023-03-03T05:28:16;1.20;37.10
30865;DHT22;17574;49.418;11.038;2023-03-03T05:30:42;1.10;36.10
30865;DHT22;17574;49.418;11.038;2023-03-03T05:33:12;1.20;36.10
30865;DHT22;17574;49.418;11.038;2023-03-03T05:35:39;1.10;35.10
30865;DHT22;17574;49.418;11.038;2023-03-03T05:38:06;1.10;35.50
30865;DHT22;17574;49.418;11.038;2023-03-03T05:40:32;1.00;35.80
30865;DHT22;17574;49.418;11.038;2023-03-03T05:42:59;1.00;36.50
30865;DHT22;17574;49.418;11.038;2023-03-03T05:45:26;1.10;38.30
30865;DHT22;17574;49.418;11.038;2023-03-03T05:47:52;1.00;38.20
30865;DHT22;17574;49.418;11.038;2023-03-03T05:50:20;1.50;37.80
30865;DHT22;17574;49.418;11.038;2023-03-03T05:52:50;1.00;37.00
30865;DHT22;17574;49.418;11.038;2023-03-03T05:55:17;1.00;38.30
30865;DHT22;17574;49.418;11.038;2023-03-03T05:57:44;1.00;39.40
30865;DHT22;17574;49.418;11.038;2023-03-03T06:00:11;1.00;40.60
30865;DHT22;17574;49.418;11.038;2023-03-03T06:02:38;1.00;40.50
30865;DHT22;17574;49.418;11.038;2023-03-03T06:05:05;1.00;39.70
30865;DHT22;17574;49.418;11.038;2023-03-03T06:07:32;1.00;40.50
30865;DHT22;17574;49.418;11.038;2023-03-03T06:09:59;1.00;42.40
30865;DHT22;17574;49.418;11.038;2023-03-03T06:12:25;1.40;42.90
30865;DHT22;17574;49.418;11.038;2023-03-03T06:14:52;1.00;43.10
30865;DHT22;17574;49.418;11.038;2023-03-03T06:17:18;1.00;42.50
30865;DHT22;17574;49.418;11.038;2023-03-03T06:19:45;1.00;42.50
30865;DHT22;17574;49.418;11.038;2023-03-03T06:22:13;1.00;42.50
30865;DHT22;17574;49.418;11.038;2023-03-03T06:24:39;1.10;42.50
30865;DHT22;17574;49.418;11.038;2023-03-03T06:27:06;1.10;42.60
30865;DHT22;17574;49.418;11.038;2023-03-03T06:29:33;1.10;42.60
30865;DHT22;17574;49.418;11.038;2023-03-03T06:31:59;1.10;42.60
30865;DHT22;17574;49.418;11.038;2023-03-03T06:34:26;1.20;42.70
30865;DHT22;17574;49.418;11.038;2023-03-03T06:36:53;1.20;42.70
30865;DHT22;17574;49.418;11.038;2023-03-03T06:39:19;1.30;42.70
30865;DHT22;17574;49.418;11.038;2023-03-03T06:41:46;1.80;43.20
30865;DHT22;17574;49.418;11.038;2023-03-03T06:44:13;1.40;42.90
30865;DHT22;17574;49.418;11.038;2023-03-03T06:46:39;1.50;43.00
30865;DHT22;17574;49.418;11.038;2023-03-03T06:49:06;1.50;42.20
30865;DHT22;17574;49.418;11.038;2023-03-03T06:51:34;1.60;41.20
30865;DHT22;17574;49.418;11.038;2023-03-03T06:54:02;1.70;40.60
30865;DHT22;17574;49.418;11.038;2023-03-03T06:56:33;1.80;41.70
30865;DHT22;17574;49.418;11.038;2023-03-03T06:59:01;1.90;40.50
30865;DHT22;17574;49.418;11.038;2023-03-03T07:01:35;2.30;38.70
30865;DHT22;17574;49.418;11.038;2023-03-03T07:06:48;2.20;37.80
30865;DHT22;17574;49.418;11.038;2023-03-03T07:09:22;2.70;37.10
30865;DHT22;17574;49.418;11.038;2023-03-03T07:11:52;2.50;34.00
30865;DHT22;17574;49.418;11.038;2023-03-03T07:14:21;2.70;33.20
30865;DHT22;17574;49.418;11.038;2023-03-03T07:16:55;3.60;30.60
30865;DHT22;17574;49.418;11.038;2023-03-03T07:19:28;3.20;27.10
30865;DHT22;17574;49.418;11.038;2023-03-03T07:21:56;3.30;26.60
30865;DHT22;17574;49.418;11.038;2023-03-03T07:24:27;3.40;25.00
30865;DHT22;17574;49.418;11.038;2023-03-03T07:27:40;3.60;24.50
30865;DHT22;17574;49.418;11.038;2023-03-03T07:29:41;3.70;24.60
30865;DHT22;17574;49.418;11.038;2023-03-03T07:34:54;4.00;21.60
30865;DHT22;17574;49.418;11.038;2023-03-03T07:39:50;4.40;16.80
30865;DHT22;17574;49.418;11.038;2023-03-03T07:42:24;4.60;16.20
30865;DHT22;17574;49.418;11.038;2023-03-03T07:44:57;4.80;14.60
30865;DHT22;17574;49.418;11.038;2023-03-03T07:47:26;5.10;13.20
30865;DHT22;17574;49.418;11.038;2023-03-03T07:49:58;5.40;10.20
30865;DHT22;17574;49.418;11.038;2023-03-03T07:52:42;6.10;7.20
30865;DHT22;17574;49.418;11.038;2023-03-03T07:57:54;7.20;1.00
30865;DHT22;17574;49.418;11.038;2023-03-03T08:02:59;8.60;1.00
30865;DHT22;17574;49.418;11.038;2023-03-03T08:08:14;9.60;1.00
30865;DHT22;17574;49.418;11.038;2023-03-03T08:13:20;10.00;1.00
30865;DHT22;17574;49.418;11.038;2023-03-03T08:15:51;10.80;1.00
30865;DHT22;17574;49.418;11.038;2023-03-03T08:18:20;11.10;1.00
30865;DHT22;17574;49.418;11.038;2023-03-03T08:20:49;11.60;1.00
30865;DHT22;17574;49.418;11.038;2023-03-03T08:23:16;12.30;1.00
30865;DHT22;17574;49.418;11.038;2023-03-03T08:25:43;15.00;1.00
30865;DHT22;17574;49.418;11.038;2023-03-03T08:28:10;16.10;1.00
30865;DHT22;17574;49.418;11.038;2023-03-03T08:30:38;16.70;1.00
30865;DHT22;17574;49.418;11.038;2023-03-03T08:33:04;16.30;1.00
30865;DHT22;17574;49.418;11.038;2023-03-03T08:35:31;16.40;1.00
30865;DHT22;17574;49.418;11.038;2023-03-03T08:37:58;17.00;1.00
30865;DHT22;17574;49.418;11.038;2023-03-03T08:40:24;16.50;1.00
30865;DHT22;17574;49.418;11.038;2023-03-03T08:42:51;15.80;1.00
30865;DHT22;17574;49.418;11.038;2023-03-03T08:45:19;15.50;1.00
30865;DHT22;17574;49.418;11.038;2023-03-03T08:47:46;15.60;1.00
30865;DHT22;17574;49.418;11.038;2023-03-03T08:50:13;15.30;1.00
30865;DHT22;17574;49.418;11.038;2023-03-03T08:52:40;15.20;1.00
30865;DHT22;17574;49.418;11.038;2023-03-03T08:55:07;15.10;1.00
30865;DHT22;17574;49.418;11.038;2023-03-03T08:57:34;15.50;1.00
30865;DHT22;17574;49.418;11.038;2023-03-03T09:00:01;15.00;1.00
30865;DHT22;17574;49.418;11.038;2023-03-03T09:02:27;15.00;1.00
30865;DHT22;17574;49.418;11.038;2023-03-03T09:04:54;15.70;1.00
30865;DHT22;17574;49.418;11.038;2023-03-03T09:07:21;15.40;1.00
30865;DHT22;17574;49.418;11.038;2023-03-03T09:09:48;16.20;1.00
30865;DHT22;17574;49.418;11.038;2023-03-03T09:12:18;15.70;1.00
30865;DHT22;17574;49.418;11.038;2023-03-03T09:14:48;16.10;1.00
30865;DHT22;17574;49.418;11.038;2023-03-03T09:17:22;16.50;1.00
30865;DHT22;17574;49.418;11.038;2023-03-03T09:19:51;17.70;1.00
30865;DHT22;17574;49.418;11.038;2023-03-03T09:22:19;18.50;1.00
30865;DHT22;17574;49.418;11.038;2023-03-03T09:24:46;18.40;1.00
30865;DHT22;17574;49.418;11.038;2023-03-03T09:27:15;19.10;1.00
30865;DHT22;17574;49.418;11.038;2023-03-03T09:29:43;19.50;1.00
30865;DHT22;17574;49.418;11.038;2023-03-03T09:34:45;20.30;1.00
30865;DHT22;17574;49.418;11.038;2023-03-03T09:39:40;20.60;1.00
30865;DHT22;17574;49.418;11.038;2023-03-03T09:43:08;20.90;1.00
30865;DHT22;17574;49.418;11.038;2023-03-03T09:45:11;20.80;1.00
30865;DHT22;17574;49.418;11.038;2023-03-03T10:05:52;23.40;1.00
30865;DHT22;17574;49.418;11.038;2023-03-03T10:11:09;23.80;1.00
30865;DHT22;17574;49.418;11.038;2023-03-03T10:16:30;24.20;1.00
30865;DHT22;17574;49.418;11.038;2023-03-03T10:19:02;24.70;1.00
30865;DHT22;17574;49.418;11.038;2023-03-03T10:21:35;24.10;1.00
30865;DHT22;17574;49.418;11.038;2023-03-03T10:42:53;24.60;1.00
30865;DHT22;17574;49.418;11.038;2023-03-03T10:45:34;24.30;1.00
30865;DHT22;17574;49.418;11.038;2023-03-03T10:55:49;24.90;1.00
30865;DHT22;17574;49.418;11.038;2023-03-03T10:58:25;25.30;1.00
30865;DHT22;17574;49.418;11.038;2023-03-03T11:00:58;24.90;1.00
30865;DHT22;17574;49.418;11.038;2023-03-03T11:03:39;24.50;1.00
30865;DHT22;17574;49.418;11.038;2023-03-03T11:06:15;24.10;1.00
30865;DHT22;17574;49.418;11.038;2023-03-03T11:08:51;24.70;1.00
30865;DHT22;17574;49.418;11.038;2023-03-03T11:13:59;24.20;1.00
30865;DHT22;17574;49.418;11.038;2023-03-03T11:24:12;24.20;1.00
30865;DHT22;17574;49.418;11.038;2023-03-03T11:36:44;25.00;1.00
30865;DHT22;17574;49.418;11.038;2023-03-03T11:39:15;24.10;1.00
30865;DHT22;17574;49.418;11.038;2023-03-03T11:44:31;23.90;1.00
30865;DHT22;17574;49.418;11.038;2023-03-03T11:49:46;23.00;1.00
30865;DHT22;17574;49.418;11.038;2023-03-03T11:57:28;22.60;1.00
30865;DHT22;17574;49.418;11.038;2023-03-03T12:00:15;22.20;1.00
30865;DHT22;17574;49.418;11.038;2023-03-03T12:02:55;22.10;1.00
30865;DHT22;17574;49.418;11.038;2023-03-03T12:07:54;22.40;1.00
30865;DHT22;17574;49.418;11.038;2023-03-03T12:10:26;22.00;1.00
30865;DHT22;17574;49.418;11.038;2023-03-03T12:15:40;22.50;1.00
30865;DHT22;17574;49.418;11.038;2023-03-03T12:28:34;23.40;1.00
30865;DHT22;17574;49.418;11.038;2023-03-03T12:33:36;24.00;1.00
30865;DHT22;17574;49.418;11.038;2023-03-03T12:38:55;23.50;1.00
30865;DHT22;17574;49.418;11.038;2023-03-03T12:49:11;23.30;1.00
30865;DHT22;17574;49.418;11.038;2023-03-03T12:57:03;22.70;1.00
30865;DHT22;17574;49.418;11.038;2023-03-03T12:59:49;22.80;1.00
30865;DHT22;17574;49.418;11.038;2023-03-03T13:05:19;23.50;1.00
30865;DHT22;17574;49.418;11.038;2023-03-03T13:07:50;24.10;1.00
30865;DHT22;17574;49.418;11.038;2023-03-03T13:15:51;23.30;1.00
30865;DHT22;17574;49.418;11.038;2023-03-03T13:18:33;23.10;1.00
30865;DHT22;17574;49.418;11.038;2023-03-03T13:21:09;23.30;1.00
30865;DHT22;17574;49.418;11.038;2023-03-03T13:23:51;23.80;1.00
30865;DHT22;17574;49.418;11.038;2023-03-03T13:29:03;23.30;1.00
30865;DHT22;17574;49.418;11.038;2023-03-03T13:31:36;22.40;1.00
30865;DHT22;17574;49.418;11.038;2023-03-03T13:34:04;22.30;1.00
30865;DHT22;17574;49.418;11.038;2023-03-03T13:36:35;22.40;1.00
30865;DHT22;17574;49.418;11.038;2023-03-03T13:39:11;22.00;1.00
30865;DHT22;17574;49.418;11.038;2023-03-03T13:41:43;21.50;1.00
30865;DHT22;17574;49.418;11.038;2023-03-03T13:46:39;21.30;1.00
30865;DHT22;17574;49.418;11.038;2023-03-03T13:49:11;20.60;1.00
30865;DHT22;17574;49.418;11.038;2023-03-03T13:51:59;20.90;1.00
30865;DHT22;17574;49.418;11.038;2023-03-03T14:02:31;19.90;1.00
30865;DHT22;17574;49.418;11.038;2023-03-03T14:05:09;19.90;1.00
30865;DHT22;17574;49.418;11.038;2023-03-03T14:07:40;20.00;1.00
30865;DHT22;17574;49.418;11.038;2023-03-03T14:10:17;20.10;1.00
30865;DHT22;17574;49.418;11.038;2023-03-03T14:15:20;19.60;1.00
30865;DHT22;17574;49.418;11.038;2023-03-03T14:17:54;19.00;1.00
30865;DHT22;17574;49.418;11.038;2023-03-03T14:23:01;18.40;1.00
30865;DHT22;17574;49.418;11.038;2023-03-03T14:25:52;18.40;1.00
30865;DHT22;17574;49.418;11.038;2023-03-03T14:28:16;18.10;1.00
30865;DHT22;17574;49.418;11.038;2023-03-03T14:30:42;18.20;1.00
30865;DHT22;17574;49.418;11.038;2023-03-03T14:35:38;17.60;1.00
30865;DHT22;17574;49.418;11.038;2023-03-03T14:38:09;17.50;1.00
30865;DHT22;17574;49.418;11.038;2023-03-03T14:40:37;17.20;1.00
30865;DHT22;17574;49.418;11.038;2023-03-03T14:45:50;16.90;1.00
30865;DHT22;17574;49.418;11.038;2023-03-03T14:48:22;16.80;1.00
30865;DHT22;17574;49.418;11.038;2023-03-03T14:50:55;16.80;1.00
30865;DHT22;17574;49.418;11.038;2023-03-03T14:53:31;16.40;1.00
30865;DHT22;17574;49.418;11.038;2023-03-03T14:58:44;16.10;1.00
30865;DHT22;17574;49.418;11.038;2023-03-03T15:01:13;16.00;1.00
30865;DHT22;17574;49.418;11.038;2023-03-03T15:11:52;15.60;1.00
30865;DHT22;17574;49.418;11.038;2023-03-03T15:14:22;15.30;1.00
30865;DHT22;17574;49.418;11.038;2023-03-03T15:16:51;15.20;1.00
30865;DHT22;17574;49.418;11.038;2023-03-03T15:19:39;15.00;1.00
30865;DHT22;17574;49.418;11.038;2023-03-03T15:24:43;14.80;1.00
30865;DHT22;17574;49.418;11.038;2023-03-03T15:27:17;14.90;1.00
30865;DHT22;17574;49.418;11.038;2023-03-03T15:30:06;14.50;1.00
30865;DHT22;17574;49.418;11.038;2023-03-03T15:32:38;14.20;1.00
30865;DHT22;17574;49.418;11.038;2023-03-03T15:37:42;13.90;1.00
30865;DHT22;17574;49.418;11.038;2023-03-03T15:40:26;13.90;1.00
30865;DHT22;17574;49.418;11.038;2023-03-03T15:45:39;13.90;1.00
30865;DHT22;17574;49.418;11.038;2023-03-03T15:53:10;13.40;1.00
30865;DHT22;17574;49.418;11.038;2023-03-03T15:55:57;13.10;1.00
30865;DHT22;17574;49.418;11.038;2023-03-03T15:58:34;12.90;1.00
30865;DHT22;17574;49.418;11.038;2023-03-03T16:01:21;12.70;1.00
30865;DHT22;17574;49.418;11.038;2023-03-03T16:03:53;12.70;1.00
30865;DHT22;17574;49.418;11.038;2023-03-03T16:06:23;12.40;1.00
30865;DHT22;17574;49.418;11.038;2023-03-03T16:09:02;12.30;1.00
30865;DHT22;17574;49.418;11.038;2023-03-03T16:14:16;12.00;1.00
30865;DHT22;17574;49.418;11.038;2023-03-03T16:16:46;11.80;1.00
30865;DHT22;17574;49.418;11.038;2023-03-03T16:21:52;11.70;1.00
30865;DHT22;17574;49.418;11.038;2023-03-03T16:24:42;11.60;1.00
30865;DHT22;17574;49.418;11.038;2023-03-03T16:29:45;11.20;1.00
30865;DHT22;17574;49.418;11.038;2023-03-03T16:32:20;11.20;1.00
30865;DHT22;17574;49.418;11.038;2023-03-03T16:34:57;11.00;1.00
30865;DHT22;17574;49.418;11.038;2023-03-03T16:37:33;10.80;1.00
30865;DHT22;17574;49.418;11.038;2023-03-03T16:42:29;10.60;1.00
30865;DHT22;17574;49.418;11.038;2023-03-03T16:47:43;10.30;1.00
30865;DHT22;17574;49.418;11.038;2023-03-03T16:50:26;10.30;1.00
30865;DHT22;17574;49.418;11.038;2023-03-03T16:58:29;10.00;1.00
30865;DHT22;17574;49.418;11.038;2023-03-03T17:01:00;10.10;1.00
30865;DHT22;17574;49.418;11.038;2023-03-03T17:08:33;9.80;1.00
30865;DHT22;17574;49.418;11.038;2023-03-03T17:13:37;9.50;1.00
30865;DHT22;17574;49.418;11.038;2023-03-03T17:16:13;9.40;1.00
30865;DHT22;17574;49.418;11.038;2023-03-03T17:18:48;9.30;1.00
30865;DHT22;17574;49.418;11.038;2023-03-03T17:26:49;9.10;1.00
30865;DHT22;17574;49.418;11.038;2023-03-03T17:34:20;8.80;1.00
30865;DHT22;17574;49.418;11.038;2023-03-03T17:41:59;8.50;1.00
30865;DHT22;17574;49.418;11.038;2023-03-03T17:47:15;8.30;1.00
30865;DHT22;17574;49.418;11.038;2023-03-03T17:52:20;8.40;1.00
30865;DHT22;17574;49.418;11.038;2023-03-03T17:54:53;8.30;1.00
30865;DHT22;17574;49.418;11.038;2023-03-03T18:02:55;8.10;1.00
30865;DHT22;17574;49.418;11.038;2023-03-03T18:13:30;7.80;1.00
30865;DHT22;17574;49.418;11.038;2023-03-03T18:23:44;7.60;1.00
30865;DHT22;17574;49.418;11.038;2023-03-03T18:26:28;7.50;1.00
30865;DHT22;17574;49.418;11.038;2023-03-03T18:31:48;7.40;1.00
30865;DHT22;17574;49.418;11.038;2023-03-03T18:37:09;7.30;1.00
30865;DHT22;17574;49.418;11.038;2023-03-03T18:39:47;7.30;1.00
30865;DHT22;17574;49.418;11.038;2023-03-03T18:44:41;7.10;1.00
30865;DHT22;17574;49.418;11.038;2023-03-03T18:47:09;7.10;1.00
30865;DHT22;17574;49.418;11.038;2023-03-03T18:52:16;7.00;1.00
30865;DHT22;17574;49.418;11.038;2023-03-03T18:54:57;6.90;1.00
30865;DHT22;17574;49.418;11.038;2023-03-03T18:57:24;6.80;1.00
30865;DHT22;17574;49.418;11.038;2023-03-03T18:59:53;6.70;1.00
30865;DHT22;17574;49.418;11.038;2023-03-03T19:02:28;6.70;1.00
30865;DHT22;17574;49.418;11.038;2023-03-03T19:05:04;6.60;1.00
30865;DHT22;17574;49.418;11.038;2023-03-03T19:12:50;6.50;1.00
30865;DHT22;17574;49.418;11.038;2023-03-03T19:18:04;6.40;1.00
30865;DHT22;17574;49.418;11.038;2023-03-03T19:20:39;6.30;1.00
30865;DHT22;17574;49.418;11.038;2023-03-03T19:25:33;6.20;1.00
30865;DHT22;17574;49.418;11.038;2023-03-03T19:36:13;6.00;1.00
30865;DHT22;17574;49.418;11.038;2023-03-03T19:39:05;5.80;1.00
30865;DHT22;17574;49.418;11.038;2023-03-03T19:41:41;5.80;1.00
30865;DHT22;17574;49.418;11.038;2023-03-03T19:52:02;5.50;1.00
30865;DHT22;17574;49.418;11.038;2023-03-03T19:54:52;5.50;1.00
30865;DHT22;17574;49.418;11.038;2023-03-03T19:57:25;5.40;1.00
30865;DHT22;17574;49.418;11.038;2023-03-03T20:00:00;5.20;1.00
30865;DHT22;17574;49.418;11.038;2023-03-03T20:02:41;5.80;1.00
30865;DHT22;17574;49.418;11.038;2023-03-03T20:05:12;5.10;1.00
30865;DHT22;17574;49.418;11.038;2023-03-03T20:10:38;4.90;1.00
30865;DHT22;17574;49.418;11.038;2023-03-03T20:13:10;4.90;1.00
30865;DHT22;17574;49.418;11.038;2023-03-03T20:15:40;4.90;1.00
30865;DHT22;17574;49.418;11.038;2023-03-03T20:18:18;4.80;1.00
30865;DHT22;17574;49.418;11.038;2023-03-03T20:23:30;4.80;1.00
30865;DHT22;17574;49.418;11.038;2023-03-03T20:31:31;4.60;2.30
30865;DHT22;17574;49.418;11.038;2023-03-03T20:36:31;4.50;4.30
30865;DHT22;17574;49.418;11.038;2023-03-03T20:39:03;4.40;4.40
30865;DHT22;17574;49.418;11.038;2023-03-03T20:49:27;4.30;6.60
30865;DHT22;17574;49.418;11.038;2023-03-03T20:57:04;4.20;6.50
30865;DHT22;17574;49.418;11.038;2023-03-03T21:02:07;4.10;8.00
30865;DHT22;17574;49.418;11.038;2023-03-03T21:04:38;4.10;8.50
30865;DHT22;17574;49.418;11.038;2023-03-03T21:07:05;4.10;9.00
30865;DHT22;17574;49.418;11.038;2023-03-03T21:09:33;4.10;9.50
30865;DHT22;17574;49.418;11.038;2023-03-03T21:12:01;4.00;10.70
30865;DHT22;17574;49.418;11.038;2023-03-03T21:14:32;4.00;11.40
30865;DHT22;17574;49.418;11.038;2023-03-03T21:17:00;3.90;12.10
30865;DHT22;17574;49.418;11.038;2023-03-03T21:19:32;3.90;13.10
30865;DHT22;17574;49.418;11.038;2023-03-03T21:21:59;3.80;13.80
30865;DHT22;17574;49.418;11.038;2023-03-03T21:27:23;3.70;15.60